• Join FlightAware (Why Join?)
  • Login
  • US Flag 
03:56PM EDT


 

Airport Tracker/Info


-or-


 

Live Flight TrackerFlight Track Log ✈ N569SC ✈ 20-Jun-2013 ✈ KGRB - KCGF

Flight Track Log - Related Links

Times and Time Zones

All times are in EDT time to prevent confusion due to time zone crossing. See the N569SC flight status page for this flight to view local times or setup timezone preferences in your user account.

Time Position Orientation Groundspeed Altitude Reporting Facility
EDT Latitude Longitude Course Direction KTS MPH feet Rate Location/Type
07:56AM 44.4458 -88.1336 134° Southeast 189 217 3,000  Level Minneapolis Center
07:57AM 44.3978 -88.0631 134° Southeast 249 287 6,300 3,720 Climbing Minneapolis Center
07:58AM 44.3442 -87.9764 131° Southeast 285 328 10,600 3,540 Climbing Minneapolis Center
07:59AM 44.2869 -87.8847 131° Southeast 307 353 13,600 2,940 Climbing Minneapolis Center
08:00AM 44.2256 -87.7819 130° Southeast 336 387 16,700 2,880 Climbing Minneapolis Center
08:01AM 44.1462 -87.5992 134° Southeast  Level FlightAware Approximate
08:01AM 44.1611 -87.6778 131° Southeast 349 402 19,600  Level Minneapolis Center
08:02AM 44.0861 -87.5528 130° Southeast 356 410 22,900 2,940 Climbing Minneapolis Center
08:03AM 44.0200 -87.4436 130° Southeast 364 419 25,600 2,400 Climbing Minneapolis Center
08:04AM 43.9494 -87.3306 131° Southeast 377 434 27,900 2,220 Climbing Minneapolis Center
08:05AM 43.8772 -87.2144 131° Southeast 389 448 30,200 2,040 Climbing Minneapolis Center
08:06AM 43.8064 -87.0975 130° Southeast 394 453 32,200 1,800 Climbing Minneapolis Center
08:07AM 43.7342 -86.9814 131° Southeast 397 457 34,000 1,320 Climbing Minneapolis Center
08:08AM 43.6597 -86.8625 131° Southeast 405 466 35,000 480 Climbing Minneapolis Center
08:09AM 43.5794 -86.7344 131° Southeast 425 489 35,000  Level Minneapolis Center
08:10AM 43.4950 -86.5992 131° Southeast 447 514 35,000  Level Minneapolis Center
08:11AM 43.4136 -86.4708 131° Southeast 451 519 35,000  Level Minneapolis Center
08:12AM 43.3208 -86.3244 131° Southeast 438 504 35,000  Level Minneapolis Center
08:13AM 43.2450 -86.2050 131° Southeast 421 484 35,000  Level Minneapolis Center
08:14AM 43.1681 -86.0833 131° Southeast 420 483 35,000  Level Minneapolis Center
08:15AM 43.0903 -85.9628 131° Southeast 424 488 35,000  Level Minneapolis Center
08:15AM 43.0553 -85.9114 133° Southeast 429 494 35,000  Level Chicago Center
08:17AM 42.9694 -85.7772 131° Southeast 436 502 35,000 -180 Level Chicago Center
08:18AM 42.8897 -85.6542 131° Southeast 434 499 34,700 -840 Descending Chicago Center
08:19AM 42.8075 -85.5272 131° Southeast 445 512 33,300 -840 Descending Chicago Center
08:20AM 42.7347 -85.3494 119° Southeast 445 512 33,000 -180 Descending Chicago Center
08:21AM 42.6833 -85.2003 115° Southeast 439 505 33,000  Level Chicago Center
08:22AM 42.6314 -85.0514 115° Southeast 437 503 33,000  Level Chicago Center
08:23AM 42.5783 -84.9047 116° Southeast 436 502 33,000  Level Chicago Center
08:24AM 42.5256 -84.7567 116° Southeast 437 503 33,000  Level Chicago Center
08:25AM 42.4733 -84.6092 116° Southeast 435 501 33,000  Level Chicago Center
08:26AM 42.4089 -84.4317 116° Southeast 437 503 33,000  Level Chicago Center
08:26AM 42.3697 -84.3353 119° Southeast 433 498 33,000  Level Cleveland Center
08:27AM 42.3161 -84.1917 117° Southeast 433 498 33,000  Level Cleveland Center
08:28AM 42.2622 -84.0428 116° Southeast 438 504 33,000 -900 Level Cleveland Center
08:29AM 42.2103 -83.8969 116° Southeast 438 504 31,200 -2,100 Descending Cleveland Center
08:30AM 42.1539 -83.7539 118° Southeast 438 504 28,800 -2,400 Descending Cleveland Center
08:31AM 42.1014 -83.6114 116° Southeast 432 497 26,400 -2,340 Descending Cleveland Center
08:32AM 42.0528 -83.4719 115° Southeast 416 479 24,200 -1,200 Descending Cleveland Center
08:33AM 42.0333 -83.3286 100° East 394 453 24,000 -120 Descending Cleveland Center
08:34AM 42.0200 -83.1881 97° East 380 437 24,000  Level Cleveland Center
08:35AM 42.0083 -83.0564 97° East 366 421 24,000  Level Cleveland Center
08:36AM 41.9942 -82.9411 99° East 352 405 24,000  Level Cleveland Center
08:37AM 41.9822 -82.8094 97° East 352 405 24,000  Level Cleveland Center
08:38AM 41.9700 -82.6778 97° East 352 405 24,000  Level Cleveland Center
08:39AM 41.9578 -82.5489 97° East 352 405 24,000  Level Cleveland Center
08:40AM 41.9431 -82.4200 99° East 352 405 24,000 -720 Level Cleveland Center
08:41AM 41.9286 -82.2883 98° East 352 405 22,600 -2,040 Descending Cleveland Center
08:42AM 41.9181 -82.1486 96° East 363 418 20,000 -2,700 Descending Cleveland Center
08:43AM 41.8972 -81.9892 100° East 388 447 17,300 -2,820 Descending Cleveland Center
08:44AM 41.8878 -81.8969 98° East 391 450 15,300 -2,880 Descending Cleveland Center
08:45AM 41.8783 -81.8103 98° East 378 435 13,600 -2,700 Descending Cleveland Center
08:45AM 41.8689 -81.7181 98° East 371 427 11,800 -2,400 Descending Cleveland Center
08:46AM 41.8553 -81.6006 99° East 337 388 9,600 -2,160 Descending Cleveland Center
08:47AM 41.8436 -81.5003 99° East 316 364 7,500 -2,580 Descending Cleveland Center
08:48AM 41.8300 -81.3886 99° East 302 348 4,500 -2,160 Descending Cleveland Center
08:49AM 41.7656 -81.3764 172° South 215 247 3,200 -780 Descending Cleveland Center
08:50AM 41.7028 -81.4119 203° Southwest 226 260 3,000 -120 Descending Cleveland Center
08:51AM 41.6442 -81.4444 203° Southwest 226 260 3,000 -240 Level Cleveland Center
08:52AM 41.5997 -81.4967 221° Southwest 226 260 2,600 -420 Descending Cleveland Center
08:53AM 41.5619 -81.5433 223° Southwest 199 229 2,200 -420 Descending Cleveland Center
08:56AM 41.5500 -81.4833 90° East  Level FlightAware Approximate
09:03AM 41.5651 -81.4864 90° East  Level Estimated